Аэропорт: Днепропетровск. Днепропетровск

ICAO: UKDD

METAR:
2018/11/19 10:00
UKDD 191000Z 11005MPS CAVOK 04/M06 Q1024 R08/090070 NOSIG
METAR:
2018/11/19 06:24
TAF UKDD 190503Z 1906/2006 07005MPS 9999 BKN020 TX03/1911Z TNM02/2005Z 
      TEMPO 1909/1916 09007G12MPS 
      TEMPO 1916/1922 06008G13MPS 2100 -SHSN BKN007 BKN015CB 
      TEMPO 1922/2006 05009G14MPS 1000 SHSN BLSN BKN005 BKN015CB